createdAt,value
2022-11-14T00:00:12.642Z,22.45
2022-11-14T00:02:40.052Z,17.77
2022-11-14T00:05:08.323Z,17.67
2022-11-14T00:07:41.355Z,17.42
2022-11-14T00:10:33.500Z,17.35
2022-11-14T00:13:01.512Z,18.95
2022-11-14T00:15:29.120Z,17.80
2022-11-14T00:17:57.766Z,18.55
2022-11-14T00:20:25.113Z,18.63
2022-11-14T00:22:52.569Z,13.73
2022-11-14T00:25:21.541Z,14.38
2022-11-14T00:27:49.215Z,17.25
2022-11-14T00:30:31.884Z,15.18
2022-11-14T00:33:02.258Z,21.38
2022-11-14T00:35:29.645Z,35.70
2022-11-14T00:37:56.945Z,28.23
2022-11-14T00:40:24.729Z,14.68
2022-11-14T00:42:52.052Z,19.10
2022-11-14T00:45:20.027Z,25.95
2022-11-14T00:47:47.451Z,20.45
2022-11-14T00:50:25.650Z,20.35
2022-11-14T00:52:54.570Z,13.98
2022-11-14T00:55:22.975Z,12.00
2022-11-14T00:57:50.317Z,21.85
2022-11-14T01:00:34.458Z,18.13
2022-11-14T01:03:02.683Z,19.27
2022-11-14T01:05:30.489Z,20.98
2022-11-14T01:07:59.339Z,10.90
2022-11-14T01:10:26.752Z,11.82
2022-11-14T01:12:55.223Z,11.43
2022-11-14T01:15:22.587Z,11.07
2022-11-14T01:17:50.035Z,14.45
2022-11-14T01:20:17.695Z,13.82
2022-11-14T01:22:45.564Z,13.30
2022-11-14T01:25:12.882Z,14.05
2022-11-14T01:27:45.245Z,13.43
2022-11-14T01:30:18.480Z,14.60
2022-11-14T01:32:45.995Z,14.98
2022-11-14T01:35:15.394Z,15.77
2022-11-14T01:37:42.721Z,14.55
2022-11-14T01:40:12.452Z,13.45
2022-11-14T01:42:40.092Z,11.38
2022-11-14T01:45:26.088Z,10.55
2022-11-14T01:47:53.743Z,9.85
2022-11-14T01:50:21.714Z,11.15
2022-11-14T01:52:51.540Z,9.63
2022-11-14T01:55:18.900Z,10.02
2022-11-14T01:57:48.086Z,9.15
2022-11-14T02:00:25.136Z,9.32
2022-11-14T02:02:53.099Z,10.13
2022-11-14T02:05:20.585Z,10.77
2022-11-14T02:07:49.396Z,12.02
2022-11-14T02:10:40.704Z,13.98
2022-11-14T02:13:08.674Z,12.73
2022-11-14T02:15:36.758Z,13.88
2022-11-14T02:18:04.506Z,15.27
2022-11-14T02:20:40.692Z,13.35
2022-11-14T02:23:08.246Z,14.23
2022-11-14T02:25:37.216Z,14.05
2022-11-14T02:28:05.232Z,13.52
2022-11-14T02:30:32.497Z,14.25
2022-11-14T02:33:15.517Z,13.52
2022-11-14T02:35:42.850Z,14.82
2022-11-14T02:38:10.571Z,13.52
2022-11-14T02:40:38.004Z,14.20
2022-11-14T02:43:05.879Z,13.80
2022-11-14T02:45:42.807Z,14.07
2022-11-14T02:48:14.374Z,12.75
2022-11-14T02:50:41.696Z,12.45
2022-11-14T02:53:14.828Z,11.68
2022-11-14T02:55:43.654Z,10.53
2022-11-14T02:58:11.180Z,11.02
2022-11-14T03:00:59.210Z,11.25
2022-11-14T03:03:43.026Z,11.15
2022-11-14T03:06:12.464Z,11.70
2022-11-14T03:08:39.872Z,11.60
2022-11-14T03:11:08.611Z,11.80
2022-11-14T03:13:38.992Z,11.18
2022-11-14T03:16:07.551Z,11.20
2022-11-14T03:18:34.922Z,11.77
2022-11-14T03:21:12.702Z,12.10
2022-11-14T03:23:40.284Z,10.95
2022-11-14T03:26:08.881Z,11.13
2022-11-14T03:28:37.102Z,11.60
2022-11-14T03:31:04.761Z,11.25
2022-11-14T03:33:32.676Z,12.75
2022-11-14T03:35:59.993Z,13.25
2022-11-14T03:38:28.369Z,13.05
2022-11-14T03:41:01.273Z,14.18
2022-11-14T03:43:32.398Z,14.93
2022-11-14T03:46:00.846Z,14.02
2022-11-14T03:48:29.183Z,13.65
2022-11-14T03:50:58.936Z,14.93
2022-11-14T03:53:26.553Z,14.32
2022-11-14T03:55:57.713Z,13.30
2022-11-14T03:58:25.181Z,10.77
2022-11-14T04:01:02.372Z,11.35
2022-11-14T04:03:49.763Z,10.18
2022-11-14T04:06:18.424Z,10.90
2022-11-14T04:08:55.262Z,10.98
2022-11-14T04:11:22.839Z,13.30
2022-11-14T04:13:51.223Z,12.15
2022-11-14T04:16:18.607Z,12.15
2022-11-14T04:18:46.423Z,13.00
2022-11-14T04:21:13.863Z,13.05
2022-11-14T04:23:41.201Z,13.45
2022-11-14T04:26:10.450Z,15.40
2022-11-14T04:28:44.629Z,16.13
2022-11-14T04:31:12.558Z,13.52
2022-11-14T04:34:03.633Z,14.30
2022-11-14T04:36:40.077Z,11.02
2022-11-14T04:39:28.255Z,11.18
2022-11-14T04:41:58.512Z,12.52
2022-11-14T04:44:25.810Z,11.13
2022-11-14T04:46:53.154Z,12.88
2022-11-14T04:49:21.063Z,13.75
2022-11-14T04:51:55.033Z,11.38
2022-11-14T04:54:23.225Z,11.35
2022-11-14T04:56:52.071Z,11.43
2022-11-14T04:59:22.193Z,10.65
2022-11-14T05:01:49.708Z,11.57
2022-11-14T05:04:17.317Z,11.18
2022-11-14T05:06:46.019Z,11.52
2022-11-14T05:09:17.777Z,10.68
2022-11-14T05:11:46.428Z,11.65
2022-11-14T05:14:32.013Z,10.80
2022-11-14T05:17:00.606Z,10.15
2022-11-14T05:19:38.898Z,10.23
2022-11-14T05:22:07.321Z,10.63
2022-11-14T05:24:38.462Z,10.05
2022-11-14T05:27:05.884Z,10.80
2022-11-14T05:29:34.486Z,10.20
2022-11-14T05:32:02.430Z,10.98
2022-11-14T05:34:29.810Z,10.80
2022-11-14T05:36:57.190Z,10.40
2022-11-14T05:39:26.083Z,10.13
2022-11-14T05:42:00.201Z,10.65
2022-11-14T05:44:50.545Z,11.00
2022-11-14T05:47:18.950Z,10.68
2022-11-14T05:49:46.597Z,12.65
2022-11-14T05:52:20.598Z,12.80
2022-11-14T05:54:48.587Z,15.45
2022-11-14T05:57:17.464Z,19.55
2022-11-14T05:59:46.459Z,17.25
2022-11-14T06:02:14.784Z,18.10
2022-11-14T06:04:59.110Z,17.90
2022-11-14T06:07:26.507Z,15.65
2022-11-14T06:10:12.044Z,16.73
2022-11-14T06:13:00.226Z,21.15
2022-11-14T06:15:29.056Z,14.85
2022-11-14T06:17:58.144Z,15.95
2022-11-14T06:20:28.934Z,15.35
2022-11-14T06:22:58.484Z,14.85
2022-11-14T06:25:25.908Z,15.10
2022-11-14T06:28:00.340Z,15.25
2022-11-14T06:30:27.664Z,13.90
2022-11-14T06:32:59.391Z,14.07
2022-11-14T06:35:27.758Z,13.48
2022-11-14T06:38:00.398Z,13.18
2022-11-14T06:40:29.772Z,13.98
2022-11-14T06:42:58.356Z,13.85
2022-11-14T06:45:25.797Z,12.85
2022-11-14T06:47:54.010Z,12.23
2022-11-14T06:50:21.892Z,12.20
2022-11-14T06:52:49.264Z,11.73
2022-11-14T06:55:20.937Z,11.35
2022-11-14T06:57:55.133Z,10.90
2022-11-14T07:00:23.196Z,10.98
2022-11-14T07:02:51.164Z,10.82
2022-11-14T07:05:18.521Z,12.85
2022-11-14T07:07:46.081Z,13.68
2022-11-14T07:10:15.890Z,15.35
2022-11-14T07:13:04.584Z,14.13
2022-11-14T07:15:33.109Z,16.17
2022-11-14T07:18:00.632Z,15.82
2022-11-14T07:20:27.984Z,14.13
2022-11-14T07:22:55.473Z,13.00
2022-11-14T07:25:25.845Z,12.95
2022-11-14T07:27:55.001Z,11.40
2022-11-14T07:30:23.574Z,11.25
2022-11-14T07:32:57.798Z,14.05
2022-11-14T07:35:25.478Z,13.98
2022-11-14T07:38:14.970Z,13.68
2022-11-14T07:41:00.571Z,15.50
2022-11-14T07:43:36.041Z,10.40
2022-11-14T07:48:38.211Z,9.70
2022-11-14T07:51:15.954Z,12.02
2022-11-14T07:53:44.650Z,11.80
2022-11-14T07:56:19.515Z,12.90
2022-11-14T07:58:56.927Z,12.40
2022-11-14T08:01:24.538Z,12.65
2022-11-14T08:04:15.742Z,13.13
2022-11-14T08:06:44.035Z,13.23
2022-11-14T08:09:14.764Z,12.55
2022-11-14T08:11:47.995Z,12.15
2022-11-14T08:14:16.199Z,13.13
2022-11-14T08:16:44.141Z,13.35
2022-11-14T08:19:11.453Z,9.75
2022-11-14T08:21:39.139Z,9.13
2022-11-14T08:24:06.651Z,9.45
2022-11-14T08:26:34.701Z,10.52
2022-11-14T08:29:14.731Z,10.10
2022-11-14T08:31:43.049Z,9.23
2022-11-14T08:34:10.547Z,9.80
2022-11-14T08:36:38.493Z,7.90
2022-11-14T08:39:08.160Z,10.45
2022-11-14T08:41:38.911Z,12.90
2022-11-14T08:44:06.515Z,11.00
2022-11-14T08:46:33.847Z,11.50
2022-11-14T08:49:09.665Z,11.60
2022-11-14T08:51:39.284Z,14.00
2022-11-14T08:54:07.076Z,10.57
2022-11-14T08:56:35.512Z,12.68
2022-11-14T08:59:12.555Z,13.15
2022-11-14T09:01:39.978Z,11.50
2022-11-14T09:04:27.743Z,10.00
2022-11-14T09:06:56.389Z,11.00
2022-11-14T09:09:27.263Z,11.40
2022-11-14T09:11:56.673Z,11.05
2022-11-14T09:14:24.031Z,11.57
2022-11-14T09:16:52.212Z,11.30
2022-11-14T09:19:28.635Z,11.32
2022-11-14T09:22:03.293Z,13.90
2022-11-14T09:24:30.815Z,11.50
2022-11-14T09:26:58.144Z,11.70
2022-11-14T09:29:28.995Z,11.00
2022-11-14T09:32:08.672Z,10.48
2022-11-14T09:34:44.490Z,10.82
2022-11-14T09:37:12.528Z,10.90
2022-11-14T09:39:41.234Z,12.38
2022-11-14T09:42:17.829Z,10.45
2022-11-14T09:44:51.211Z,12.95
2022-11-14T09:47:35.312Z,10.90
2022-11-14T09:50:06.809Z,11.38
2022-11-14T09:52:47.706Z,11.82
2022-11-14T09:55:22.703Z,10.77
2022-11-14T09:57:50.075Z,11.43
2022-11-14T10:00:21.955Z,12.13
2022-11-14T10:02:50.785Z,13.60
2022-11-14T10:05:22.731Z,11.63
2022-11-14T10:08:05.466Z,10.32
2022-11-14T10:10:38.828Z,11.65
2022-11-14T10:13:18.429Z,10.65
2022-11-14T10:16:17.157Z,10.57
2022-11-14T10:19:02.961Z,11.52
2022-11-14T10:21:41.393Z,10.75
2022-11-14T10:24:27.403Z,10.82
2022-11-14T10:27:03.890Z,12.25
2022-11-14T10:29:31.164Z,10.23
2022-11-14T10:32:19.100Z,12.02
2022-11-14T10:34:50.037Z,12.38
2022-11-14T10:37:22.097Z,11.85
2022-11-14T10:39:55.584Z,11.73
2022-11-14T10:42:26.400Z,12.57
2022-11-14T10:44:58.146Z,12.88
2022-11-14T10:47:35.743Z,12.57
2022-11-14T10:50:52.744Z,12.05
2022-11-14T10:53:31.451Z,12.10
2022-11-14T10:56:04.573Z,11.70
2022-11-14T10:58:47.611Z,11.98
2022-11-14T11:01:36.839Z,10.98
2022-11-14T11:04:26.389Z,10.05
2022-11-14T11:07:05.320Z,11.07
2022-11-14T11:10:00.442Z,10.02
2022-11-14T11:15:15.787Z,10.80
2022-11-14T11:17:56.951Z,10.32
2022-11-14T11:20:29.403Z,9.68
2022-11-14T11:23:07.097Z,11.48
2022-11-14T11:25:41.315Z,12.05
2022-11-14T11:28:08.709Z,11.05
2022-11-14T11:30:38.072Z,11.63
2022-11-14T11:33:23.963Z,11.07
2022-11-14T11:35:52.763Z,11.32
2022-11-14T11:38:20.253Z,10.85
2022-11-14T11:40:48.795Z,11.05
2022-11-14T11:46:19.608Z,10.18
2022-11-14T11:48:57.508Z,9.73
2022-11-14T11:51:27.784Z,11.13
2022-11-14T11:54:04.407Z,11.00
2022-11-14T11:56:32.467Z,11.40
2022-11-14T11:59:23.217Z,12.20
2022-11-14T12:01:52.351Z,12.07
2022-11-14T12:04:19.930Z,9.57
2022-11-14T12:06:55.912Z,9.40
2022-11-14T12:09:42.597Z,10.35
2022-11-14T12:12:18.343Z,9.68
2022-11-14T12:14:52.595Z,9.57
2022-11-14T12:17:26.024Z,9.57
2022-11-14T12:20:05.888Z,9.23
2022-11-14T12:22:42.317Z,10.68
2022-11-14T12:25:23.287Z,9.38
2022-11-14T12:28:11.168Z,8.90
2022-11-14T12:31:12.560Z,9.60
2022-11-14T12:33:53.000Z,10.93
2022-11-14T12:36:27.727Z,10.38
2022-11-14T12:39:00.093Z,10.48
2022-11-14T12:41:29.228Z,9.75
2022-11-14T12:44:35.084Z,10.18
2022-11-14T12:47:07.331Z,10.32
2022-11-14T12:49:55.729Z,10.05
2022-11-14T12:52:44.354Z,10.05
2022-11-14T12:55:41.530Z,8.80
2022-11-14T12:58:13.042Z,10.38
2022-11-14T13:01:07.911Z,9.73
2022-11-14T13:03:38.369Z,9.70
2022-11-14T13:06:13.049Z,10.18
2022-11-14T13:08:58.015Z,11.13
2022-11-14T13:11:56.177Z,12.25
2022-11-14T13:14:43.195Z,10.90
2022-11-14T13:17:30.208Z,10.10
2022-11-14T13:20:23.536Z,8.82
2022-11-14T13:22:51.252Z,10.32
2022-11-14T13:25:20.765Z,10.25
2022-11-14T13:30:57.388Z,9.27
2022-11-14T13:33:49.949Z,8.52
2022-11-14T13:36:33.831Z,8.63
2022-11-14T13:39:09.556Z,8.85
2022-11-14T13:41:51.289Z,8.43
2022-11-14T13:44:25.504Z,9.00
2022-11-14T13:47:10.685Z,7.82
2022-11-14T13:49:38.487Z,9.85
2022-11-14T13:52:06.024Z,10.73
2022-11-14T13:54:33.414Z,10.45
2022-11-14T13:57:16.310Z,10.65
2022-11-14T13:59:47.316Z,10.60
2022-11-14T14:02:17.879Z,10.95
2022-11-14T14:05:02.565Z,12.00
2022-11-14T14:07:45.079Z,8.43
2022-11-14T14:10:17.938Z,8.95
2022-11-14T14:13:08.254Z,9.07
2022-11-14T14:15:36.359Z,10.80
2022-11-14T14:18:12.627Z,9.20
2022-11-14T14:20:40.063Z,10.85
2022-11-14T14:23:39.291Z,11.57
2022-11-14T14:26:25.497Z,11.30
2022-11-14T14:28:57.096Z,10.25
2022-11-14T14:31:24.646Z,8.95
2022-11-14T14:33:53.147Z,9.57
2022-11-14T14:36:25.735Z,10.93
2022-11-14T14:39:23.777Z,11.07
2022-11-14T14:41:57.362Z,10.27
2022-11-14T14:44:41.532Z,8.85
2022-11-14T14:47:21.126Z,9.05
2022-11-14T14:50:07.585Z,9.70
2022-11-14T14:52:50.736Z,11.77
2022-11-14T14:55:27.148Z,11.75
2022-11-14T14:57:59.167Z,11.77
2022-11-14T15:00:27.291Z,12.70
2022-11-14T15:02:58.155Z,11.93
2022-11-14T15:05:25.722Z,12.35
2022-11-14T15:07:56.951Z,9.85
2022-11-14T15:10:25.981Z,10.40
2022-11-14T15:12:53.960Z,9.60
2022-11-14T15:15:25.977Z,10.05
2022-11-14T15:17:54.136Z,10.70
2022-11-14T15:20:25.866Z,10.60
2022-11-14T15:23:30.307Z,10.40
2022-11-14T15:26:03.830Z,10.23
2022-11-14T15:28:31.891Z,9.30
2022-11-14T15:31:01.436Z,10.70
2022-11-14T15:33:33.705Z,10.05
2022-11-14T15:36:27.603Z,10.48
2022-11-14T15:39:04.240Z,9.90
2022-11-14T15:41:32.916Z,10.13
2022-11-14T15:44:03.475Z,9.80
2022-11-14T15:46:41.571Z,9.93
2022-11-14T15:49:45.719Z,10.15
2022-11-14T15:52:40.867Z,10.97
2022-11-14T15:55:14.665Z,11.30
2022-11-14T15:57:48.432Z,10.05
2022-11-14T16:00:26.154Z,11.55
2022-11-14T16:03:04.763Z,10.05
2022-11-14T16:05:32.281Z,21.27
2022-11-14T16:07:59.709Z,13.57
2022-11-14T16:10:28.530Z,10.10
2022-11-14T16:12:55.913Z,10.75
2022-11-14T16:15:23.768Z,10.45
2022-11-14T16:17:51.430Z,10.65
2022-11-14T16:20:29.642Z,12.00
2022-11-14T16:22:57.316Z,12.02
2022-11-14T16:25:26.199Z,11.57
2022-11-14T16:27:53.522Z,11.57
2022-11-14T16:30:22.001Z,11.70
2022-11-14T16:32:50.127Z,11.95
2022-11-14T16:35:18.634Z,12.85
2022-11-14T16:37:46.437Z,12.02
2022-11-14T16:40:19.492Z,14.00
2022-11-14T16:42:47.646Z,13.20
2022-11-14T16:45:15.154Z,13.13
2022-11-14T16:47:42.503Z,14.27
2022-11-14T16:50:10.150Z,12.77
2022-11-14T16:52:39.410Z,15.45
2022-11-14T16:55:11.004Z,12.63
2022-11-14T16:57:39.104Z,13.02
2022-11-14T17:00:23.831Z,12.45
2022-11-14T17:02:51.189Z,13.55
2022-11-14T17:05:18.694Z,14.68
2022-11-14T17:07:46.049Z,13.43
2022-11-14T17:10:15.038Z,13.60
2022-11-14T17:12:42.379Z,13.32
2022-11-14T17:15:09.923Z,14.25
2022-11-14T17:17:38.113Z,15.05
2022-11-14T17:20:16.641Z,15.75
2022-11-14T17:22:44.025Z,15.60
2022-11-14T17:25:11.468Z,13.52
2022-11-14T17:27:38.858Z,15.27
2022-11-14T17:30:06.968Z,14.18
2022-11-14T17:32:35.678Z,15.25
2022-11-14T17:35:03.023Z,14.80
2022-11-14T17:37:30.535Z,14.25
2022-11-14T17:40:02.091Z,14.68
2022-11-14T17:42:29.624Z,14.65
2022-11-14T17:45:01.161Z,14.73
2022-11-14T17:47:28.826Z,14.98
2022-11-14T17:50:15.193Z,15.18
2022-11-14T17:52:43.392Z,15.40
2022-11-14T17:55:11.233Z,16.50
2022-11-14T17:57:40.029Z,19.85
2022-11-14T18:00:10.228Z,16.02
2022-11-14T18:02:37.977Z,68.15
2022-11-14T18:05:05.905Z,33.35
2022-11-14T18:07:38.101Z,25.20
2022-11-14T18:10:11.654Z,17.80
2022-11-14T18:12:41.663Z,20.42
2022-11-14T18:15:10.528Z,22.55
2022-11-14T18:17:37.899Z,16.00
2022-11-14T18:20:24.205Z,14.57
2022-11-14T18:22:53.148Z,14.68
2022-11-14T18:25:20.982Z,25.08
2022-11-14T18:27:48.402Z,14.93
2022-11-14T18:30:46.788Z,14.90
2022-11-14T18:33:07.259Z,14.88
2022-11-14T18:35:37.290Z,20.92
2022-11-14T18:38:04.736Z,17.77
2022-11-14T18:40:32.700Z,13.98
2022-11-14T18:43:00.032Z,14.27
2022-11-14T18:45:27.439Z,15.00
2022-11-14T18:48:07.464Z,17.67
2022-11-14T18:50:35.105Z,21.77
2022-11-14T18:53:19.733Z,25.10
2022-11-14T18:58:32.278Z,14.27
2022-11-14T19:00:59.940Z,16.58
2022-11-14T19:03:29.080Z,14.15
2022-11-14T19:05:56.794Z,16.50
2022-11-14T19:08:24.269Z,17.23
2022-11-14T19:10:51.639Z,14.55
2022-11-14T19:13:20.837Z,15.75
2022-11-14T19:15:48.311Z,16.77
2022-11-14T19:18:15.704Z,16.55
2022-11-14T19:20:43.149Z,17.60
2022-11-14T19:23:10.992Z,17.58
2022-11-14T19:25:38.529Z,21.42
2022-11-14T19:28:06.098Z,15.02
2022-11-14T19:30:36.049Z,13.55
2022-11-14T19:33:06.982Z,12.95
2022-11-14T19:35:40.743Z,15.73
2022-11-14T19:38:08.481Z,15.55
2022-11-14T19:40:50.930Z,14.10
2022-11-14T19:43:25.657Z,15.02
2022-11-14T19:45:53.177Z,14.73
2022-11-14T19:48:21.509Z,14.23
2022-11-14T19:50:49.805Z,13.65
2022-11-14T19:53:18.828Z,12.73
2022-11-14T19:55:46.504Z,12.32
2022-11-14T19:58:15.406Z,19.13
2022-11-14T20:00:43.900Z,16.25
2022-11-14T20:03:12.409Z,14.50
2022-11-14T20:05:39.837Z,12.27
2022-11-14T20:08:07.487Z,12.60
2022-11-14T20:10:51.619Z,14.90
2022-11-14T20:13:19.300Z,12.50
2022-11-14T20:15:46.773Z,11.70
2022-11-14T20:18:28.068Z,10.05
2022-11-14T20:20:58.266Z,9.98
2022-11-14T20:23:26.906Z,9.93
2022-11-14T20:25:54.408Z,10.10
2022-11-14T20:28:21.948Z,9.13
2022-11-14T20:30:49.351Z,9.48
2022-11-14T20:33:16.978Z,8.65
2022-11-14T20:35:49.766Z,8.93
2022-11-14T20:38:17.139Z,9.35
2022-11-14T20:40:45.329Z,10.55
2022-11-14T20:43:12.988Z,9.40
2022-11-14T20:45:40.343Z,8.25
2022-11-14T20:48:07.712Z,9.77
2022-11-14T20:50:35.305Z,9.63
2022-11-14T20:53:02.740Z,8.95
2022-11-14T20:55:30.737Z,9.82
2022-11-14T20:57:58.125Z,8.32
2022-11-14T21:00:25.613Z,8.77
2022-11-14T21:02:53.861Z,7.78
2022-11-14T21:05:21.273Z,8.82
2022-11-14T21:07:48.712Z,8.57
2022-11-14T21:10:34.803Z,8.15
2022-11-14T21:13:20.888Z,8.90
2022-11-14T21:15:48.267Z,8.50
2022-11-14T21:18:15.647Z,9.32
2022-11-14T21:20:43.083Z,8.63
2022-11-14T21:23:10.401Z,8.20
2022-11-14T21:25:37.751Z,9.57
2022-11-14T21:28:05.337Z,9.98
2022-11-14T21:30:33.619Z,9.05
2022-11-14T21:33:01.017Z,8.77
2022-11-14T21:35:32.528Z,9.60
2022-11-14T21:38:00.090Z,8.90
2022-11-14T21:40:27.407Z,9.55
2022-11-14T21:42:55.278Z,9.60
2022-11-14T21:45:22.628Z,8.73
2022-11-14T21:47:50.171Z,8.55
2022-11-14T21:50:17.707Z,9.10
2022-11-14T21:52:45.351Z,9.82
2022-11-14T21:55:12.780Z,8.77
2022-11-14T21:57:40.301Z,8.13
2022-11-14T22:00:08.081Z,8.18
2022-11-14T22:02:54.126Z,8.73
2022-11-14T22:05:21.494Z,8.98
2022-11-14T22:07:48.877Z,9.13
2022-11-14T22:10:16.384Z,9.20
2022-11-14T22:12:43.773Z,9.63
2022-11-14T22:15:11.186Z,9.82
2022-11-14T22:17:38.628Z,8.57
2022-11-14T22:20:06.314Z,8.90
2022-11-14T22:22:33.663Z,8.27
2022-11-14T22:25:00.998Z,9.02
2022-11-14T22:27:28.404Z,9.18
2022-11-14T22:29:55.972Z,8.20
2022-11-14T22:32:23.305Z,8.40
2022-11-14T22:34:50.852Z,8.93
2022-11-14T22:37:18.124Z,8.30
2022-11-14T22:39:45.654Z,8.05
2022-11-14T22:42:12.971Z,8.82
2022-11-14T22:44:40.388Z,9.43
2022-11-14T22:47:07.808Z,7.68
2022-11-14T22:49:35.179Z,8.05
2022-11-14T22:52:02.457Z,8.05
2022-11-14T22:54:29.809Z,8.27
2022-11-14T22:56:57.284Z,8.00
2022-11-14T22:59:24.876Z,7.32
2022-11-14T23:01:52.274Z,7.65
2022-11-14T23:04:19.803Z,6.85
2022-11-14T23:06:47.261Z,8.00
2022-11-14T23:09:14.693Z,7.45
2022-11-14T23:11:42.020Z,8.02
2022-11-14T23:14:12.648Z,7.57
2022-11-14T23:16:40.116Z,6.45
2022-11-14T23:19:07.591Z,8.23
2022-11-14T23:21:36.481Z,6.43
2022-11-14T23:24:05.549Z,7.43
2022-11-14T23:26:33.370Z,7.03
2022-11-14T23:29:00.742Z,7.95
2022-11-14T23:31:28.158Z,7.35
2022-11-14T23:33:56.521Z,8.25
2022-11-14T23:36:24.092Z,6.90
2022-11-14T23:38:54.538Z,8.00
2022-11-14T23:41:23.675Z,7.90
2022-11-14T23:43:51.038Z,8.20
2022-11-14T23:46:18.409Z,8.18
2022-11-14T23:48:45.837Z,7.28
2022-11-14T23:51:13.931Z,7.13
2022-11-14T23:53:41.625Z,7.65
2022-11-14T23:56:12.418Z,7.80
2022-11-14T23:58:39.719Z,7.13
